Time;durP1;ratioP1;P1;durP2;ratioP2;P2;SDS_P1;SDS_P2;PMS_P1;PMS_P2;Temp;Humidity;BMP_temperature;BMP_pressure;BME280_temperature;BME280_humidity;BME280_pressure;Samples;Min_cycle;Max_cycle;Signal;HPM_P1;HPM_P2
2021/04/29 00:02:13;;;;;;;37.63;19.17;;;11.50;99.90;;;;;;5034757;28;20305;-79
2021/04/29 00:04:39;;;;;;;32.97;19.97;;;11.50;99.90;;;;;;5035057;28;20362;-79
2021/04/29 00:07:06;;;;;;;35.90;20.50;;;11.50;99.90;;;;;;5049291;28;20717;-80
2021/04/29 00:09:33;;;;;;;39.37;20.70;;;11.50;99.90;;;;;;5054820;28;20198;-79
2021/04/29 00:11:59;;;;;;;36.50;21.90;;;11.40;99.90;;;;;;5054088;28;20206;-79
2021/04/29 00:14:26;;;;;;;41.13;22.47;;;11.40;99.90;;;;;;5054795;28;20794;-79
2021/04/29 00:16:53;;;;;;;41.67;21.10;;;11.30;99.90;;;;;;5054524;28;20214;-78
2021/04/29 00:19:20;;;;;;;41.60;20.87;;;11.30;99.90;;;;;;5054579;28;20199;-79
2021/04/29 00:21:47;;;;;;;34.90;21.63;;;11.20;99.90;;;;;;5049646;28;20223;-79
2021/04/29 00:24:14;;;;;;;44.13;21.60;;;11.10;99.90;;;;;;5033712;28;20318;-79
2021/04/29 00:26:40;;;;;;;47.33;23.03;;;11.00;99.90;;;;;;5034343;28;20648;-78
2021/04/29 00:29:07;;;;;;;38.80;22.43;;;10.90;99.90;;;;;;5034530;28;20192;-79
2021/04/29 00:31:33;;;;;;;43.43;23.10;;;10.70;99.90;;;;;;5034505;28;20206;-78
2021/04/29 00:33:59;;;;;;;43.40;23.00;;;10.70;99.90;;;;;;5033980;28;20705;-78
2021/04/29 00:36:28;;;;;;;43.33;24.30;;;10.60;99.90;;;;;;5037925;28;20567;-78
2021/04/29 00:38:54;;;;;;;47.63;25.07;;;10.60;99.90;;;;;;5053631;28;20199;-78
2021/04/29 00:41:21;;;;;;;44.43;25.67;;;10.50;99.90;;;;;;5054475;28;20250;-79
2021/04/29 00:43:47;;;;;;;42.37;24.07;;;10.40;99.90;;;;;;5054096;28;20561;-79
2021/04/29 00:46:14;;;;;;;39.97;22.00;;;10.30;99.90;;;;;;5054074;28;20297;-77
2021/04/29 00:48:41;;;;;;;39.90;22.33;;;10.20;99.90;;;;;;5046883;28;20199;-79
2021/04/29 00:51:07;;;;;;;40.80;21.10;;;10.10;99.90;;;;;;5034521;28;20185;-79
2021/04/29 00:53:37;;;;;;;41.90;21.77;;;9.90;99.90;;;;;;5033180;28;20268;-79
2021/04/29 00:56:04;;;;;;;39.93;22.27;;;9.80;99.90;;;;;;5034315;28;20296;-78
2021/04/29 00:58:31;;;;;;;40.37;23.07;;;9.80;99.90;;;;;;5049432;28;20200;-79
2021/04/29 01:00:58;;;;;;;40.90;22.93;;;9.90;99.90;;;;;;5053277;28;20283;-78
2021/04/29 01:03:31;;;;;;;39.40;23.17;;;9.90;99.90;;;;;;5053592;28;20291;-78
2021/04/29 01:06:02;;;;;;;42.33;23.57;;;9.90;99.90;;;;;;5054081;28;20317;-79
2021/04/29 01:08:32;;;;;;;38.10;22.27;;;9.80;99.90;;;;;;5053482;28;20285;-79
2021/04/29 01:11:06;;;;;;;42.33;23.17;;;9.70;99.90;;;;;;5053310;28;20292;-78
2021/04/29 01:13:35;;;;;;;42.63;23.67;;;9.80;99.90;;;;;;5053799;28;20297;-79
2021/04/29 01:16:02;;;;;;;47.30;23.60;;;9.80;99.90;;;;;;5053740;28;20697;-79
2021/04/29 01:18:30;;;;;;;41.03;25.07;;;9.80;99.90;;;;;;5053767;28;20198;-79
2021/04/29 01:21:02;;;;;;;41.27;23.20;;;9.80;99.90;;;;;;5053808;28;20275;-79
2021/04/29 01:23:35;;;;;;;43.47;22.63;;;9.80;99.90;;;;;;5053524;28;20191;-79
2021/04/29 01:26:09;;;;;;;41.77;23.50;;;9.70;99.90;;;;;;5052772;28;20208;-79
2021/04/29 01:28:38;;;;;;;39.63;23.93;;;9.70;99.90;;;;;;5052938;28;20206;-79
2021/04/29 01:31:06;;;;;;;40.20;23.03;;;9.80;99.90;;;;;;5053055;28;20793;-80
2021/04/29 01:33:32;;;;;;;38.37;21.77;;;9.80;99.90;;;;;;5052762;28;20381;-78
2021/04/29 01:36:00;;;;;;;36.70;22.33;;;9.70;99.90;;;;;;5052971;28;20234;-78
2021/04/29 01:38:27;;;;;;;39.13;23.23;;;9.70;99.90;;;;;;5052496;28;20208;-80
2021/04/29 01:40:55;;;;;;;36.67;22.57;;;9.60;99.90;;;;;;5052963;28;20301;-79
2021/04/29 01:43:22;;;;;;;35.43;22.73;;;9.60;99.90;;;;;;5052594;28;20233;-79
2021/04/29 01:45:50;;;;;;;40.30;24.23;;;9.70;99.90;;;;;;5052845;28;20237;-79
2021/04/29 01:48:16;;;;;;;38.03;22.47;;;9.60;99.90;;;;;;5038779;28;20297;-79
2021/04/29 01:50:43;;;;;;;41.37;24.07;;;9.50;99.90;;;;;;5041768;28;20271;-80
2021/04/29 01:53:10;;;;;;;42.40;23.17;;;9.50;99.90;;;;;;5050073;28;20204;-79
2021/04/29 01:55:36;;;;;;;41.17;23.63;;;9.40;99.90;;;;;;5050790;28;20639;-79
2021/04/29 01:58:03;;;;;;;38.67;24.20;;;9.30;99.90;;;;;;5044890;28;20301;-80
2021/04/29 02:00:29;;;;;;;41.27;24.67;;;9.30;99.90;;;;;;5033305;28;20548;-80
2021/04/29 02:02:59;;;;;;;42.80;24.80;;;9.30;99.90;;;;;;5037400;28;20277;-80
2021/04/29 02:05:26;;;;;;;44.47;24.27;;;9.20;99.90;;;;;;5043216;28;20318;-80
2021/04/29 02:07:52;;;;;;;41.50;25.37;;;9.10;99.90;;;;;;5045844;28;20205;-80
2021/04/29 02:10:19;;;;;;;40.50;25.90;;;9.10;99.90;;;;;;5042701;28;20200;-79
2021/04/29 02:12:50;;;;;;;45.10;25.23;;;9.00;99.90;;;;;;5054084;28;20814;-80
2021/04/29 02:15:18;;;;;;;46.37;24.80;;;9.00;99.90;;;;;;5050929;28;20239;-79
2021/04/29 02:17:47;;;;;;;44.27;25.87;;;9.00;99.90;;;;;;5036745;28;20680;-80
2021/04/29 02:20:16;;;;;;;41.37;25.40;;;8.90;99.90;;;;;;5053121;28;20264;-80
2021/04/29 02:22:44;;;;;;;46.93;26.93;;;8.80;99.90;;;;;;5056776;28;20311;-80
2021/04/29 02:25:12;;;;;;;43.50;26.77;;;8.80;99.90;;;;;;5042997;28;20230;-80
2021/04/29 02:27:39;;;;;;;42.47;26.03;;;8.90;99.90;;;;;;5036870;28;20676;-80
2021/04/29 02:30:09;;;;;;;43.03;26.77;;;8.90;99.90;;;;;;5043279;28;20289;-79
2021/04/29 02:32:35;;;;;;;43.97;28.10;;;8.80;99.90;;;;;;5036180;28;20215;-80
2021/04/29 02:35:05;;;;;;;44.87;26.97;;;8.70;99.90;;;;;;5036407;28;20286;-79
2021/04/29 02:37:32;;;;;;;44.10;27.13;;;8.60;99.90;;;;;;5042816;28;20305;-79
2021/04/29 02:40:00;;;;;;;43.80;28.17;;;8.60;99.90;;;;;;5047575;28;20303;-79
2021/04/29 02:42:26;;;;;;;45.00;27.63;;;8.60;99.90;;;;;;5035582;28;20546;-79
2021/04/29 02:44:53;;;;;;;43.80;27.40;;;8.60;99.90;;;;;;5045617;28;20611;-80
2021/04/29 02:47:20;;;;;;;48.33;29.27;;;8.60;99.90;;;;;;5055629;28;20216;-80
2021/04/29 02:49:47;;;;;;;48.27;28.43;;;8.60;99.90;;;;;;5041692;28;20286;-80
2021/04/29 02:52:13;;;;;;;47.27;27.63;;;8.60;99.90;;;;;;5048873;28;20285;-80
2021/04/29 02:54:45;;;;;;;47.20;28.73;;;8.60;99.90;;;;;;5043289;28;20191;-79
2021/04/29 02:57:20;;;;;;;42.57;27.97;;;8.60;99.90;;;;;;5035320;28;20206;-80
2021/04/29 02:59:46;;;;;;;47.67;28.13;;;8.60;99.90;;;;;;5046253;28;20292;-80
2021/04/29 03:02:13;;;;;;;47.13;27.43;;;8.60;99.90;;;;;;5047243;28;20287;-80
2021/04/29 03:04:39;;;;;;;46.87;26.90;;;8.60;99.90;;;;;;5055640;28;20370;-80
2021/04/29 03:07:05;;;;;;;48.40;29.07;;;8.60;99.90;;;;;;5053166;28;20204;-80
2021/04/29 03:09:32;;;;;;;43.23;26.43;;;8.60;99.90;;;;;;5039328;28;20204;-80
2021/04/29 03:11:59;;;;;;;48.33;28.47;;;8.70;99.90;;;;;;5038967;28;20190;-80
2021/04/29 03:14:26;;;;;;;45.17;26.20;;;8.80;99.90;;;;;;5054189;28;20278;-80
2021/04/29 03:16:52;;;;;;;48.97;26.70;;;8.90;99.90;;;;;;5036466;28;20209;-80
2021/04/29 03:19:18;;;;;;;46.77;26.07;;;9.00;99.90;;;;;;5048616;28;20198;-80
2021/04/29 03:21:45;;;;;;;42.30;24.83;;;9.10;99.90;;;;;;5055849;28;20198;-80
2021/04/29 03:24:11;;;;;;;45.33;25.70;;;9.10;99.90;;;;;;5054147;28;20224;-80
2021/04/29 03:26:37;;;;;;;45.23;25.73;;;9.20;99.90;;;;;;5048518;28;20191;-80
2021/04/29 03:29:05;;;;;;;43.33;25.57;;;9.20;99.90;;;;;;5034641;28;20196;-80
2021/04/29 03:31:31;;;;;;;37.87;23.27;;;9.20;99.90;;;;;;5045526;28;20285;-79
2021/04/29 03:33:58;;;;;;;42.40;24.17;;;9.30;99.90;;;;;;5054905;28;20210;-80
2021/04/29 03:36:24;;;;;;;39.50;23.87;;;9.30;99.90;;;;;;5046590;28;20703;-81
2021/04/29 03:38:50;;;;;;;40.87;25.07;;;9.30;99.90;;;;;;5038374;28;20201;-80
2021/04/29 03:41:17;;;;;;;43.27;25.37;;;9.30;99.90;;;;;;5054609;28;20194;-80
2021/04/29 03:43:43;;;;;;;39.90;24.77;;;9.40;99.90;;;;;;5052041;28;20291;-80
2021/04/29 03:46:10;;;;;;;39.70;23.50;;;9.40;99.90;;;;;;5034851;28;20584;-80
2021/04/29 03:48:37;;;;;;;40.47;23.93;;;9.40;99.90;;;;;;5047904;28;20194;-80
2021/04/29 03:51:03;;;;;;;41.10;25.93;;;9.40;99.90;;;;;;5034966;28;20197;-79
2021/04/29 03:53:30;;;;;;;38.03;24.47;;;9.50;99.90;;;;;;5053093;28;20730;-79
2021/04/29 03:55:57;;;;;;;42.17;24.70;;;9.50;99.90;;;;;;5039969;28;20289;-79
2021/04/29 03:58:24;;;;;;;38.67;25.00;;;9.50;99.90;;;;;;5042856;28;20556;-79
2021/04/29 04:00:50;;;;;;;39.70;24.60;;;9.50;99.90;;;;;;5054861;28;20285;-79
2021/04/29 04:03:18;;;;;;;37.13;24.47;;;9.50;99.90;;;;;;5054273;28;20290;-80
2021/04/29 04:05:44;;;;;;;38.90;24.00;;;9.60;99.90;;;;;;5054090;28;20732;-79
2021/04/29 04:08:11;;;;;;;41.40;23.80;;;9.50;99.90;;;;;;5047837;28;20193;-79
2021/04/29 04:10:38;;;;;;;39.57;23.80;;;9.50;99.90;;;;;;5034078;28;20248;-79
2021/04/29 04:13:05;;;;;;;41.47;24.03;;;9.50;99.90;;;;;;5038159;28;20293;-79
2021/04/29 04:15:31;;;;;;;39.23;23.97;;;9.50;99.90;;;;;;5054063;28;20201;-80
2021/04/29 04:17:58;;;;;;;39.47;24.97;;;9.50;99.90;;;;;;5045071;28;20191;-79
2021/04/29 04:20:25;;;;;;;37.20;23.43;;;9.50;99.90;;;;;;5037196;28;20217;-79
2021/04/29 04:22:51;;;;;;;41.63;24.60;;;9.50;99.90;;;;;;5053665;28;20313;-80
2021/04/29 04:25:18;;;;;;;35.53;23.40;;;9.60;99.90;;;;;;5051684;28;20360;-79
2021/04/29 04:27:44;;;;;;;40.33;25.03;;;9.60;99.90;;;;;;5040537;28;20198;-80
2021/04/29 04:30:11;;;;;;;35.00;23.20;;;9.60;99.90;;;;;;5039610;28;20198;-79
2021/04/29 04:32:38;;;;;;;35.00;24.10;;;9.60;99.90;;;;;;5033856;28;20237;-79
2021/04/29 04:35:05;;;;;;;37.43;23.90;;;9.50;99.90;;;;;;5038801;28;20739;-79
2021/04/29 04:37:32;;;;;;;41.10;24.50;;;9.40;99.90;;;;;;5033969;28;20606;-80
2021/04/29 04:39:59;;;;;;;37.07;22.97;;;9.30;99.90;;;;;;5053336;28;20262;-80
2021/04/29 04:42:25;;;;;;;38.67;23.23;;;9.10;99.90;;;;;;5035325;28;20209;-80
2021/04/29 04:44:52;;;;;;;38.43;23.93;;;9.00;99.90;;;;;;5039268;28;20311;-80
2021/04/29 04:47:19;;;;;;;38.80;24.53;;;9.10;99.90;;;;;;5031896;28;21151;-79
2021/04/29 04:49:45;;;;;;;40.33;24.70;;;9.10;99.90;;;;;;5044611;28;20194;-79
2021/04/29 04:52:11;;;;;;;35.77;24.03;;;9.20;99.90;;;;;;5033665;28;20198;-80
2021/04/29 04:54:39;;;;;;;35.53;23.40;;;9.20;99.90;;;;;;5046841;28;20190;-79
2021/04/29 04:57:08;;;;;;;40.07;23.77;;;9.30;99.90;;;;;;5042355;28;20244;-78
2021/04/29 04:59:35;;;;;;;35.40;21.43;;;9.40;99.90;;;;;;5040300;28;20609;-79
2021/04/29 05:02:01;;;;;;;29.60;20.07;;;9.40;99.90;;;;;;5033081;28;20203;-78
2021/04/29 05:04:28;;;;;;;32.87;21.27;;;9.40;99.90;;;;;;5033555;28;20696;-79
2021/04/29 05:06:55;;;;;;;30.77;19.87;;;9.40;99.90;;;;;;5038488;28;20279;-78
2021/04/29 05:09:21;;;;;;;27.83;19.33;;;9.50;99.90;;;;;;5052319;28;20639;-79
2021/04/29 05:11:49;;;;;;;31.03;19.57;;;9.30;99.90;;;;;;5039752;28;20286;-79
2021/04/29 05:14:15;;;;;;;33.57;18.87;;;9.30;99.90;;;;;;5038097;28;20199;-79
2021/04/29 05:16:43;;;;;;;35.00;22.40;;;9.30;99.90;;;;;;5047453;28;20203;-83
2021/04/29 05:19:10;;;;;;;38.43;22.47;;;9.30;99.90;;;;;;5044502;28;20711;-80
2021/04/29 05:21:36;;;;;;;37.33;23.13;;;9.40;99.90;;;;;;5051874;28;20228;-79
2021/04/29 05:24:03;;;;;;;40.23;26.27;;;9.50;99.90;;;;;;5051295;28;20202;-79
2021/04/29 05:26:30;;;;;;;41.70;27.27;;;9.60;99.90;;;;;;5047753;28;20608;-79
2021/04/29 05:28:57;;;;;;;42.70;27.27;;;9.60;99.90;;;;;;5045096;28;20294;-79
2021/04/29 05:31:23;;;;;;;47.47;30.03;;;9.70;99.90;;;;;;5035045;28;20206;-79
2021/04/29 05:33:50;;;;;;;48.80;30.20;;;9.80;99.90;;;;;;5035689;28;20211;-78
2021/04/29 05:36:16;;;;;;;44.53;28.40;;;9.90;99.90;;;;;;5052782;28;20289;-78
2021/04/29 05:38:43;;;;;;;47.80;29.07;;;9.90;99.90;;;;;;5049405;28;20198;-80
2021/04/29 05:41:09;;;;;;;46.37;28.27;;;9.90;99.90;;;;;;5033779;28;20202;-78
2021/04/29 05:43:36;;;;;;;43.90;28.17;;;9.90;99.90;;;;;;5036537;28;20307;-78
2021/04/29 05:46:03;;;;;;;39.60;26.50;;;9.80;99.90;;;;;;5050027;28;20716;-78
2021/04/29 05:48:29;;;;;;;43.37;26.60;;;9.70;99.90;;;;;;5055712;28;20288;-78
2021/04/29 05:50:56;;;;;;;39.83;27.03;;;9.60;99.90;;;;;;5055431;28;20194;-78
2021/04/29 05:53:23;;;;;;;45.07;28.43;;;9.60;99.90;;;;;;5036420;28;20231;-78
2021/04/29 05:55:49;;;;;;;42.73;26.73;;;9.50;99.90;;;;;;5047538;28;20293;-79
2021/04/29 05:58:16;;;;;;;40.57;25.77;;;9.50;99.90;;;;;;5042534;28;20287;-78
2021/04/29 06:00:42;;;;;;;37.97;26.17;;;9.50;99.90;;;;;;5046599;28;20203;-78
2021/04/29 06:03:09;;;;;;;40.27;27.43;;;9.50;99.90;;;;;;5049093;28;20296;-78
2021/04/29 06:05:36;;;;;;;42.27;27.30;;;9.60;99.90;;;;;;5045283;28;20347;-78
2021/04/29 06:08:03;;;;;;;45.23;28.00;;;9.60;99.90;;;;;;5047253;28;20198;-79
2021/04/29 06:10:32;;;;;;;42.10;27.43;;;9.80;99.90;;;;;;5045873;28;20205;-78
2021/04/29 06:12:59;;;;;;;40.37;26.70;;;9.70;99.90;;;;;;5046141;28;20273;-79
2021/04/29 06:15:25;;;;;;;42.20;26.43;;;9.60;99.90;;;;;;5049477;28;20208;-79
2021/04/29 06:17:51;;;;;;;42.07;25.33;;;9.50;99.90;;;;;;5050597;28;20285;-78
2021/04/29 06:20:19;;;;;;;34.23;23.87;;;9.60;99.90;;;;;;5047211;28;20654;-78
2021/04/29 06:22:46;;;;;;;40.50;24.43;;;9.80;99.90;;;;;;5048052;28;20245;-78
2021/04/29 06:25:13;;;;;;;38.47;24.10;;;9.80;99.90;;;;;;5044839;28;20226;-79
2021/04/29 06:27:41;;;;;;;38.53;23.60;;;9.80;99.90;;;;;;5038276;28;20654;-79
2021/04/29 06:30:09;;;;;;;30.83;21.87;;;9.90;99.90;;;;;;5033587;28;20204;-79
2021/04/29 06:32:36;;;;;;;36.53;21.70;;;9.90;99.90;;;;;;5042576;28;20210;-79
2021/04/29 06:35:03;;;;;;;34.77;20.57;;;9.90;99.90;;;;;;5043542;28;20290;-78
2021/04/29 06:37:31;;;;;;;33.27;19.97;;;10.00;99.90;;;;;;5042659;28;20739;-79
2021/04/29 06:39:57;;;;;;;28.63;18.33;;;9.90;99.90;;;;;;5044471;28;20202;-79
2021/04/29 06:42:24;;;;;;;27.60;17.20;;;10.00;99.90;;;;;;5063173;28;20198;-79
2021/04/29 06:44:50;;;;;;;26.90;16.20;;;10.00;99.90;;;;;;5057707;28;20236;-79
2021/04/29 06:47:20;;;;;;;26.27;16.43;;;9.90;99.90;;;;;;5055197;28;20202;-78
2021/04/29 06:49:47;;;;;;;26.27;17.00;;;9.90;99.90;;;;;;5053582;28;20200;-79
2021/04/29 06:52:16;;;;;;;27.90;18.37;;;9.90;99.90;;;;;;5051481;28;20231;-78
2021/04/29 06:54:43;;;;;;;28.07;16.70;;;9.90;99.90;;;;;;5048424;28;20189;-79
2021/04/29 06:57:10;;;;;;;24.33;15.73;;;9.90;99.90;;;;;;5053534;28;20209;-79
2021/04/29 06:59:37;;;;;;;25.07;13.97;;;9.80;99.90;;;;;;5040672;28;20285;-78
2021/04/29 07:02:03;;;;;;;24.33;13.30;;;9.70;99.90;;;;;;5049947;28;20226;-78
2021/04/29 07:04:30;;;;;;;24.20;13.57;;;9.70;99.90;;;;;;5046085;28;20294;-78
2021/04/29 07:06:56;;;;;;;21.73;12.77;;;9.70;99.90;;;;;;5053173;28;20203;-78
2021/04/29 07:09:22;;;;;;;20.37;12.83;;;9.80;99.90;;;;;;5046394;28;20205;-79
2021/04/29 07:11:50;;;;;;;23.80;13.37;;;9.70;99.90;;;;;;5052855;28;20569;-78
2021/04/29 07:14:16;;;;;;;20.77;12.47;;;9.70;99.90;;;;;;5054842;28;20750;-78
2021/04/29 07:16:42;;;;;;;21.57;12.90;;;9.50;99.90;;;;;;5051485;28;20204;-78
2021/04/29 07:19:09;;;;;;;18.53;12.90;;;9.40;99.90;;;;;;5041064;28;20198;-79
2021/04/29 07:21:35;;;;;;;20.67;12.83;;;9.60;99.90;;;;;;5046114;28;20758;-78
2021/04/29 07:24:02;;;;;;;23.87;12.27;;;9.50;99.90;;;;;;5041181;28;20293;-79
2021/04/29 07:26:29;;;;;;;23.07;12.37;;;9.50;99.90;;;;;;5047968;28;20678;-80
2021/04/29 07:28:56;;;;;;;15.87;10.63;;;9.50;99.90;;;;;;5045336;28;20238;-79
2021/04/29 07:31:22;;;;;;;17.70;11.13;;;9.60;99.90;;;;;;5043881;28;20203;-78
2021/04/29 07:33:48;;;;;;;20.67;10.23;;;9.50;99.90;;;;;;5050363;28;20266;-78
2021/04/29 07:36:15;;;;;;;17.90;10.30;;;9.50;99.90;;;;;;5045949;28;20222;-78
2021/04/29 07:38:41;;;;;;;16.83;10.20;;;9.50;99.90;;;;;;5048806;28;20534;-78
2021/04/29 07:41:08;;;;;;;20.73;10.10;;;9.50;99.90;;;;;;5047662;28;20206;-79
2021/04/29 07:43:34;;;;;;;15.67;9.50;;;9.40;99.90;;;;;;5050814;28;20213;-78
2021/04/29 07:46:02;;;;;;;15.97;9.03;;;9.40;99.90;;;;;;5052141;28;20233;-78
2021/04/29 07:48:28;;;;;;;14.33;8.50;;;9.20;99.90;;;;;;5047323;28;20660;-78
2021/04/29 07:50:55;;;;;;;19.20;9.00;;;9.20;99.90;;;;;;5050055;28;20196;-78
2021/04/29 07:53:21;;;;;;;19.33;9.20;;;9.20;99.90;;;;;;5046907;28;20202;-78
2021/04/29 07:55:48;;;;;;;19.83;9.07;;;9.10;99.90;;;;;;5046709;28;20746;-79
2021/04/29 07:58:14;;;;;;;14.47;8.50;;;9.10;99.90;;;;;;5045818;28;20200;-78
2021/04/29 08:00:41;;;;;;;14.57;8.40;;;8.90;99.90;;;;;;5042826;28;20655;-78
2021/04/29 08:03:08;;;;;;;11.33;7.20;;;8.70;99.90;;;;;;5051086;28;20229;-78
2021/04/29 08:05:35;;;;;;;17.87;7.00;;;8.60;99.90;;;;;;5049841;28;20305;-79
2021/04/29 08:08:01;;;;;;;16.23;8.60;;;8.30;99.90;;;;;;5048516;28;20199;-78
2021/04/29 08:10:28;;;;;;;12.83;7.90;;;8.10;99.90;;;;;;5042161;28;20274;-78
2021/04/29 08:12:54;;;;;;;16.77;7.97;;;7.90;99.90;;;;;;5045864;28;20662;-78
2021/04/29 08:15:21;;;;;;;15.47;8.20;;;7.90;99.90;;;;;;5045628;28;20220;-79
2021/04/29 08:17:48;;;;;;;12.20;8.17;;;7.90;99.90;;;;;;5048799;28;20591;-79
2021/04/29 08:20:15;;;;;;;12.17;8.00;;;8.00;99.90;;;;;;5050032;28;20285;-79
2021/04/29 08:22:42;;;;;;;15.70;7.13;;;8.10;99.90;;;;;;5044039;28;20248;-78
2021/04/29 08:25:09;;;;;;;13.23;8.10;;;8.10;99.90;;;;;;5044821;28;20219;-77
2021/04/29 08:27:36;;;;;;;12.70;6.80;;;8.10;99.90;;;;;;5048431;28;20194;-78
2021/04/29 08:30:04;;;;;;;10.57;6.67;;;8.00;99.90;;;;;;5042942;28;20214;-77
2021/04/29 08:32:30;;;;;;;8.30;6.53;;;8.00;99.90;;;;;;5046423;28;20214;-77
2021/04/29 08:34:56;;;;;;;9.00;6.13;;;8.10;99.90;;;;;;5044635;28;20586;-78
2021/04/29 08:37:24;;;;;;;8.60;5.67;;;8.20;99.90;;;;;;5041946;28;20195;-78
2021/04/29 08:39:50;;;;;;;10.57;5.80;;;8.30;99.90;;;;;;5048300;28;20687;-77
2021/04/29 08:42:17;;;;;;;6.07;4.67;;;8.30;99.90;;;;;;5043843;28;20200;-77
2021/04/29 08:44:43;;;;;;;5.77;4.13;;;8.30;99.90;;;;;;5043306;28;20221;-78
2021/04/29 08:47:10;;;;;;;4.10;3.47;;;8.30;99.90;;;;;;5041031;28;20200;-78
2021/04/29 08:49:39;;;;;;;5.10;3.03;;;8.10;99.90;;;;;;5052740;28;20659;-78
2021/04/29 08:52:09;;;;;;;3.97;3.20;;;8.00;99.90;;;;;;5049412;28;20197;-78
2021/04/29 08:54:38;;;;;;;6.20;3.73;;;8.00;99.90;;;;;;5045376;28;20610;-79
2021/04/29 08:57:05;;;;;;;7.27;3.90;;;8.20;99.90;;;;;;5049040;28;20202;-79
2021/04/29 08:59:31;;;;;;;7.80;3.47;;;8.20;99.90;;;;;;5045422;28;20792;-78
2021/04/29 09:01:58;;;;;;;3.80;3.10;;;8.10;99.90;;;;;;5048088;28;20650;-78
2021/04/29 09:04:24;;;;;;;4.63;3.60;;;8.00;99.90;;;;;;5046924;28;20202;-78
2021/04/29 09:06:51;;;;;;;6.83;4.50;;;7.90;99.90;;;;;;5043008;28;20202;-79
2021/04/29 09:09:20;;;;;;;8.33;4.80;;;7.80;99.90;;;;;;5047627;28;20205;-79
2021/04/29 09:11:52;;;;;;;6.63;4.73;;;7.90;99.90;;;;;;5047367;28;20563;-78
2021/04/29 09:14:30;;;;;;;7.80;5.13;;;8.10;99.90;;;;;;5044854;28;20210;-78
2021/04/29 09:16:56;;;;;;;8.90;4.37;;;8.10;99.90;;;;;;5044974;28;20289;-78
2021/04/29 09:19:24;;;;;;;7.90;5.07;;;8.00;99.90;;;;;;5047635;28;20243;-79
2021/04/29 09:21:52;;;;;;;7.97;5.13;;;7.90;99.90;;;;;;5045325;28;20198;-79
2021/04/29 09:24:18;;;;;;;9.73;5.20;;;8.00;99.90;;;;;;5045435;28;20206;-79
2021/04/29 09:26:45;;;;;;;7.97;5.43;;;8.00;99.90;;;;;;5047607;28;20225;-79
2021/04/29 09:29:14;;;;;;;8.37;5.20;;;8.10;99.90;;;;;;5043568;28;20198;-78
2021/04/29 09:31:42;;;;;;;8.37;5.57;;;7.80;99.90;;;;;;5042976;28;20198;-78
2021/04/29 09:34:09;;;;;;;10.10;6.47;;;7.60;99.90;;;;;;5044056;28;20216;-79
2021/04/29 09:36:38;;;;;;;11.70;6.33;;;7.50;99.90;;;;;;5041335;28;20209;-78
2021/04/29 09:39:06;;;;;;;12.97;7.00;;;7.50;99.90;;;;;;5042618;28;20241;-78
2021/04/29 09:41:35;;;;;;;10.07;6.17;;;7.40;99.90;;;;;;5042731;28;20209;-79
2021/04/29 09:44:03;;;;;;;10.27;7.37;;;7.30;99.90;;;;;;5047937;28;20201;-78
2021/04/29 09:46:41;;;;;;;11.53;7.63;;;7.30;99.90;;;;;;5047043;28;20236;-79
2021/04/29 09:49:22;;;;;;;19.63;8.33;;;7.40;99.90;;;;;;5049803;28;20194;-78
2021/04/29 09:51:48;;;;;;;16.83;7.57;;;7.60;99.90;;;;;;5041034;28;20563;-79
2021/04/29 09:54:25;;;;;;;13.83;8.63;;;7.70;99.90;;;;;;5046804;28;20198;-79
2021/04/29 09:56:56;;;;;;;12.80;7.77;;;7.70;99.90;;;;;;5043086;28;20193;-78
2021/04/29 09:59:22;;;;;;;11.77;6.60;;;7.60;99.90;;;;;;5045662;28;20294;-79
2021/04/29 10:01:51;;;;;;;15.00;7.30;;;7.60;99.90;;;;;;5042716;28;20284;-79
2021/04/29 10:04:18;;;;;;;12.73;6.57;;;7.60;99.90;;;;;;5044270;28;20202;-79
2021/04/29 10:06:45;;;;;;;10.97;6.33;;;7.90;99.90;;;;;;5045836;28;20221;-78
2021/04/29 10:09:13;;;;;;;9.20;5.23;;;8.10;99.90;;;;;;5041585;28;20293;-79
2021/04/29 10:11:40;;;;;;;9.83;5.73;;;8.10;99.90;;;;;;5044729;28;20243;-78
2021/04/29 10:14:08;;;;;;;8.43;5.37;;;8.10;99.90;;;;;;5045777;28;20289;-78
2021/04/29 10:16:35;;;;;;;7.30;5.23;;;8.30;99.90;;;;;;5044689;28;20650;-79
2021/04/29 10:19:03;;;;;;;11.57;4.97;;;8.30;99.90;;;;;;5050745;28;20603;-79
2021/04/29 10:21:30;;;;;;;8.90;5.27;;;8.30;99.90;;;;;;5048935;28;20200;-79
2021/04/29 10:23:56;;;;;;;9.20;5.40;;;8.30;99.90;;;;;;5050190;28;20291;-79
2021/04/29 10:26:27;;;;;;;9.03;5.47;;;8.40;99.90;;;;;;5050431;28;20220;-78
2021/04/29 10:28:58;;;;;;;9.50;5.27;;;8.30;99.90;;;;;;5042399;28;20212;-79
2021/04/29 10:31:26;;;;;;;10.60;5.47;;;8.50;99.90;;;;;;5050377;28;20281;-77
2021/04/29 10:33:56;;;;;;;11.17;5.53;;;8.60;99.90;;;;;;5045207;28;20308;-78
2021/04/29 10:36:35;;;;;;;8.73;5.20;;;8.60;99.90;;;;;;5047373;28;20288;-77
2021/04/29 10:39:13;;;;;;;8.73;5.47;;;8.40;99.90;;;;;;5044101;28;20217;-78
2021/04/29 10:41:40;;;;;;;8.90;4.90;;;9.10;99.90;;;;;;5051464;28;20190;-77
2021/04/29 10:44:11;;;;;;;8.63;5.07;;;9.80;99.90;;;;;;5053821;28;20609;-79
2021/04/29 10:46:39;;;;;;;7.37;5.23;;;10.30;99.90;;;;;;5050137;28;20218;-79
2021/04/29 10:49:06;;;;;;;8.90;4.70;;;10.30;99.90;;;;;;5040352;28;20252;-78
2021/04/29 10:51:35;;;;;;;7.77;4.50;;;10.00;99.90;;;;;;5047349;28;20211;-78
2021/04/29 10:54:16;;;;;;;9.83;5.07;;;9.80;99.90;;;;;;5039238;28;20209;-78
2021/04/29 10:57:01;;;;;;;6.73;4.53;;;9.80;99.90;;;;;;5045173;28;20923;-79
2021/04/29 10:59:40;;;;;;;10.27;5.27;;;9.90;99.90;;;;;;5047355;28;20223;-78
2021/04/29 11:02:19;;;;;;;7.70;5.00;;;10.30;99.90;;;;;;5044898;28;20196;-77
2021/04/29 11:04:46;;;;;;;8.63;5.67;;;10.70;99.90;;;;;;5048975;28;20198;-79
2021/04/29 11:07:13;;;;;;;8.10;5.43;;;11.50;99.90;;;;;;5043334;28;20228;-78
2021/04/29 11:09:41;;;;;;;10.30;5.57;;;11.70;99.90;;;;;;5046474;28;20618;-79
2021/04/29 11:12:10;;;;;;;8.40;5.30;;;11.20;99.90;;;;;;5047789;28;20287;-78
2021/04/29 11:14:43;;;;;;;12.37;5.87;;;11.10;99.90;;;;;;5042343;28;20203;-78
2021/04/29 11:17:21;;;;;;;11.67;6.10;;;10.80;99.90;;;;;;5042179;28;20245;-78
2021/04/29 11:19:57;;;;;;;17.30;7.00;;;10.80;99.90;;;;;;5044169;28;20198;-78
2021/04/29 11:22:33;;;;;;;12.23;6.30;;;10.50;99.90;;;;;;5042342;28;20191;-79
2021/04/29 11:25:01;;;;;;;8.90;6.10;;;10.30;99.90;;;;;;5039276;28;20224;-78
2021/04/29 11:27:29;;;;;;;9.80;6.23;;;9.80;99.90;;;;;;5037416;28;20203;-78
2021/04/29 11:29:58;;;;;;;10.20;6.53;;;9.40;99.90;;;;;;5044504;28;20673;-78
2021/04/29 11:32:25;;;;;;;9.13;6.03;;;9.30;99.90;;;;;;5044542;28;20751;-78
2021/04/29 11:34:53;;;;;;;10.57;6.50;;;9.30;99.90;;;;;;5042258;28;20192;-78
2021/04/29 11:37:20;;;;;;;15.10;6.70;;;9.10;99.90;;;;;;5046314;28;20233;-78
2021/04/29 11:39:57;;;;;;;11.87;7.27;;;9.20;99.90;;;;;;5048323;28;20318;-78
2021/04/29 11:42:25;;;;;;;10.63;6.73;;;9.40;99.90;;;;;;5045145;28;20276;-78
2021/04/29 11:44:52;;;;;;;13.77;6.73;;;9.50;99.90;;;;;;5043975;28;20202;-78
2021/04/29 11:47:18;;;;;;;12.10;6.57;;;9.20;99.90;;;;;;5045358;28;20192;-77
2021/04/29 11:49:44;;;;;;;13.20;6.63;;;9.20;99.90;;;;;;5046256;28;20283;-78
2021/04/29 11:52:11;;;;;;;11.00;6.50;;;9.20;99.90;;;;;;5041976;28;20200;-78
2021/04/29 11:54:48;;;;;;;10.60;6.60;;;9.30;99.90;;;;;;5042533;28;20194;-78
2021/04/29 11:57:16;;;;;;;11.90;7.30;;;9.20;99.90;;;;;;5044894;28;20202;-78
2021/04/29 11:59:48;;;;;;;13.90;6.97;;;9.40;99.90;;;;;;5043571;28;20234;-78
2021/04/29 12:02:17;;;;;;;11.07;6.33;;;9.80;99.90;;;;;;5041503;28;20640;-78
2021/04/29 12:04:46;;;;;;;13.37;7.50;;;10.00;99.90;;;;;;5046129;28;20655;-77
2021/04/29 12:07:13;;;;;;;12.37;6.47;;;10.10;99.90;;;;;;5049574;28;20198;-77
2021/04/29 12:09:41;;;;;;;15.87;7.40;;;10.10;99.90;;;;;;5043272;28;20554;-80
2021/04/29 12:12:13;;;;;;;17.77;6.97;;;10.30;99.90;;;;;;5042824;28;20215;-78
2021/04/29 12:14:47;;;;;;;11.30;6.60;;;10.60;99.90;;;;;;5044138;28;20202;-75
2021/04/29 12:17:14;;;;;;;14.17;6.80;;;10.90;99.90;;;;;;5043092;28;20203;-74
2021/04/29 12:19:44;;;;;;;12.63;7.27;;;10.90;99.90;;;;;;5042151;28;20196;-75
2021/04/29 12:22:14;;;;;;;12.57;7.47;;;10.70;99.90;;;;;;5042644;28;20230;-75
2021/04/29 12:24:41;;;;;;;13.33;7.23;;;10.30;99.90;;;;;;5045475;28;20234;-76
2021/04/29 12:27:15;;;;;;;12.10;6.57;;;9.90;99.90;;;;;;5044257;28;20311;-75
2021/04/29 12:29:43;;;;;;;9.83;6.90;;;10.10;99.90;;;;;;5041368;28;20201;-75
2021/04/29 12:32:10;;;;;;;12.10;6.53;;;10.10;99.90;;;;;;5046005;28;20291;-75
2021/04/29 12:34:43;;;;;;;12.73;6.50;;;10.00;99.90;;;;;;5043858;28;20612;-75
2021/04/29 12:37:09;;;;;;;10.13;6.10;;;9.60;99.90;;;;;;5043645;28;20194;-75
2021/04/29 12:39:39;;;;;;;9.83;6.50;;;9.40;99.90;;;;;;5043888;28;20603;-75
2021/04/29 12:42:09;;;;;;;13.73;6.80;;;9.20;99.90;;;;;;5044337;28;20205;-75
2021/04/29 12:44:38;;;;;;;14.03;7.23;;;9.10;99.90;;;;;;5041293;28;20226;-75